KMGY/MGY METAR and TAF weather

Enter ICAO airport designator
Station Type Date Time Source
KMGY METAR 2018/12/15 02:53 UTC NOAA

KMGY 150253Z AUTO 05010KT 10SM BKN120 10/06 A3003 RMK AO2 SLP171 T01000056 58014


Station Type Date Time Source
KMGY Decoded METAR 2018/12/15 02:53 UTC NOAA

DAYTON WRIGHT BROTHERS AIRPORT , OH, United States (KMGY) 39-36N 84-14W 289M
Dec 14, 2018 - 09:53 PM EST / 2018.12.15 0253 UTC
Wind: from the NE (050 degrees) at 12 MPH (10 KT):0
Visibility: 10 mile(s):0
Sky conditions: mostly cloudy
Temperature: 50.0 F (10.0 C)
Dew Point: 42.1 F (5.6 C)
Relative Humidity: 74%
Pressure (altimeter): 30.03 in. Hg (1016 hPa)
Pressure tendency: 0.04 inches (1.4 hPa) lower than three hours ago
ob: KMGY 150253Z AUTO 05010KT 10SM BKN120 10/06 A3003 RMK AO2 SLP171 T01000056 58014
cycle: 3

Station Type Date Time Source
KMGY TAF UTC NOAA

Error!


Example: see airport list